Time;durP1;ratioP1;P1;durP2;ratioP2;P2;SDS_P1;SDS_P2;PMS_P1;PMS_P2;Temp;Humidity;BMP_temperature;BMP_pressure;BME280_temperature;BME280_humidity;BME280_pressure;Samples;Min_cycle;Max_cycle;Signal;HPM_P1;HPM_P2
2023/07/28 00:02:28;;;;;;;0.20;0.20;;;;;;;24.51;100.00;100433.72;10494137;28;20036;-81
2023/07/28 00:07:30;;;;;;;0.03;0.03;;;;;;;24.70;100.00;100439.13;10510185;28;20051;-80
2023/07/28 00:12:32;;;;;;;0.68;0.25;;;;;;;24.49;100.00;100438.19;10512676;28;20518;-81
2023/07/28 00:17:33;;;;;;;0.45;0.38;;;;;;;24.84;100.00;100435.91;10510776;28;20048;-80
2023/07/28 00:22:35;;;;;;;0.98;0.30;;;;;;;24.83;100.00;100444.75;10528308;28;20126;-81
2023/07/28 00:27:36;;;;;;;0.55;0.35;;;;;;;25.04;100.00;100440.34;10506346;28;20761;-80
2023/07/28 00:32:39;;;;;;;0.40;0.22;;;;;;;25.01;100.00;100446.63;10517160;28;20162;-80
2023/07/28 00:37:40;;;;;;;0.43;0.30;;;;;;;24.96;100.00;100440.69;10501894;28;20101;-81
2023/07/28 00:42:42;;;;;;;0.20;0.20;;;;;;;24.49;100.00;100441.69;10493773;28;20040;-81
2023/07/28 00:47:44;;;;;;;0.20;0.10;;;;;;;24.52;100.00;100440.69;10513262;28;20489;-80
2023/07/28 00:52:46;;;;;;;0.05;0.05;;;;;;;25.11;100.00;100438.34;10507587;28;20501;-81
2023/07/28 00:57:48;;;;;;;0.00;0.00;;;;;;;25.38;100.00;100445.97;10510254;28;20097;-81
2023/07/28 01:02:50;;;;;;;0.38;0.38;;;;;;;25.08;100.00;100454.25;10512265;28;20444;-80
2023/07/28 01:08:10;;;;;;;0.65;0.30;;;;;;;24.69;100.00;100443.53;10514173;28;20499;-81
2023/07/28 01:13:12;;;;;;;;;;;;;;;25.08;100.00;100443.72;10499050;28;20048;-81
2023/07/28 01:18:15;;;;;;;0.30;0.22;;;;;;;24.64;100.00;100442.84;10515975;28;19923;-80
2023/07/28 01:23:25;;;;;;;0.60;0.45;;;;;;;24.30;100.00;100436.28;10495947;28;20475;-81
2023/07/28 01:28:27;;;;;;;1.63;0.52;;;;;;;24.22;100.00;100440.97;10509660;28;20097;-81
2023/07/28 01:33:29;;;;;;;0.85;0.50;;;;;;;24.24;100.00;100441.75;10497848;28;20044;-80
2023/07/28 01:38:31;;;;;;;0.73;0.47;;;;;;;23.89;100.00;100420.25;10508789;28;20059;-81
2023/07/28 01:43:33;;;;;;;1.00;0.55;;;;;;;24.69;100.00;100430.34;10516278;28;20050;-81
2023/07/28 01:48:35;;;;;;;0.95;0.35;;;;;;;24.39;100.00;100435.91;10502501;28;20056;-81
2023/07/28 01:53:36;;;;;;;0.63;0.40;;;;;;;24.53;100.00;100434.53;10514784;28;20044;-81
2023/07/28 01:58:38;;;;;;;1.75;0.70;;;;;;;24.11;100.00;100440.53;10515304;28;20550;-81
2023/07/28 02:03:39;;;;;;;1.00;0.50;;;;;;;24.26;100.00;100450.47;10514076;28;20044;-81
2023/07/28 02:08:41;;;;;;;1.30;0.43;;;;;;;24.83;100.00;100442.13;10494614;28;20443;-81
2023/07/28 02:13:43;;;;;;;0.00;0.00;;;;;;;24.37;100.00;100448.28;10514220;28;20429;-81
2023/07/28 02:18:50;;;;;;;0.20;0.17;;;;;;;24.69;100.00;100443.53;10513861;28;20062;-81
2023/07/28 02:23:51;;;;;;;1.02;0.30;;;;;;;24.62;100.00;100452.56;10513904;28;20453;-81
2023/07/28 02:28:53;;;;;;;0.88;0.43;;;;;;;24.93;100.00;100453.13;10513120;28;20052;-81
2023/07/28 02:33:55;;;;;;;0.95;0.50;;;;;;;24.75;100.00;100457.38;10486015;28;20138;-81
2023/07/28 02:38:57;;;;;;;0.30;0.20;;;;;;;24.87;100.00;100451.59;10511275;28;20052;-81
2023/07/28 02:43:59;;;;;;;0.65;0.65;;;;;;;24.85;100.00;100449.03;10513856;28;20538;-81
2023/07/28 02:49:03;;;;;;;0.50;0.40;;;;;;;24.97;100.00;100452.97;10492671;28;20083;-81
2023/07/28 02:54:06;;;;;;;1.02;0.73;;;;;;;24.70;100.00;100466.31;10497042;28;20055;-81
2023/07/28 02:59:07;;;;;;;0.38;0.38;;;;;;;24.60;100.00;100464.97;10512828;28;20519;-81
2023/07/28 03:04:09;;;;;;;0.30;0.28;;;;;;;24.82;100.00;100469.38;10512752;28;20048;-81
2023/07/28 03:09:31;;;;;;;0.65;0.38;;;;;;;25.37;100.00;100470.63;10511852;28;20519;-82
2023/07/28 03:14:35;;;;;;;0.47;0.30;;;;;;;25.20;100.00;100469.59;10511927;28;20449;-81
2023/07/28 03:19:37;;;;;;;0.20;0.20;;;;;;;25.11;100.00;100469.97;10492751;28;20138;-81
2023/07/28 03:24:38;;;;;;;0.32;0.32;;;;;;;25.00;100.00;100479.16;10496805;28;20056;-81
2023/07/28 03:29:40;;;;;;;1.17;0.52;;;;;;;25.11;100.00;100485.78;10495811;28;20394;-82
2023/07/28 03:34:42;;;;;;;0.43;0.20;;;;;;;25.06;100.00;100493.03;10507408;28;20392;-82
2023/07/28 03:39:47;;;;;;;0.52;0.38;;;;;;;24.65;100.00;100484.06;10510263;28;20097;-81
2023/07/28 03:44:49;;;;;;;1.95;0.50;;;;;;;24.75;100.00;100483.72;10499581;28;20418;-81
2023/07/28 03:49:51;;;;;;;0.50;0.50;;;;;;;24.37;100.00;100493.03;10502229;28;20075;-81
2023/07/28 03:54:52;;;;;;;0.82;0.40;;;;;;;24.54;100.00;100492.38;10519859;28;20052;-81
2023/07/28 03:59:54;;;;;;;0.47;0.38;;;;;;;25.11;100.00;100496.31;10519902;28;20612;-81
2023/07/28 04:04:56;;;;;;;0.55;0.55;;;;;;;25.02;100.00;100492.25;10503220;28;20040;-81
2023/07/28 04:09:58;;;;;;;0.65;0.47;;;;;;;24.95;100.00;100496.94;10517834;28;20334;-81
2023/07/28 04:15:00;;;;;;;0.30;0.20;;;;;;;25.03;100.00;100496.63;10518450;28;20040;-81
2023/07/28 04:20:02;;;;;;;0.63;0.63;;;;;;;25.08;100.00;100506.97;10509389;28;20076;-81
2023/07/28 04:25:04;;;;;;;0.93;0.28;;;;;;;25.00;100.00;100508.16;10509415;28;20048;-81
2023/07/28 04:30:07;;;;;;;0.93;0.85;;;;;;;24.87;100.00;100505.16;10517242;28;20486;-82
2023/07/28 04:35:09;;;;;;;0.32;0.32;;;;;;;24.77;100.00;100498.56;10505767;28;20051;-81
2023/07/28 04:40:33;;;;;;;3.42;1.23;;;;;;;24.59;100.00;100515.91;10518101;28;20186;-81
2023/07/28 04:45:35;;;;;;;1.00;0.32;;;;;;;24.67;100.00;100519.13;10534590;28;20066;-81
2023/07/28 04:50:44;;;;;;;0.80;0.73;;;;;;;24.63;100.00;100521.91;10501617;28;20091;-82
2023/07/28 04:56:21;;;;;;;0.65;0.20;;;;;;;24.53;100.00;100531.94;10515766;28;20495;-81
2023/07/28 05:01:23;;;;;;;1.08;0.63;;;;;;;25.01;100.00;100525.69;10507463;28;20130;-81
2023/07/28 05:06:24;;;;;;;1.05;0.47;;;;;;;25.15;100.00;100534.78;10501873;28;20122;-82
2023/07/28 05:11:27;;;;;;;1.95;0.95;;;;;;;24.95;100.00;100525.06;10512806;28;20060;-81
2023/07/28 05:16:28;;;;;;;0.55;0.30;;;;;;;24.98;100.00;100523.16;10509199;28;20035;-81
2023/07/28 05:21:45;;;;;;;1.33;0.70;;;;;;;24.73;100.00;100532.97;10517693;28;20086;-81
2023/07/28 05:26:51;;;;;;;2.17;0.60;;;;;;;24.55;100.00;100527.47;10503097;28;20066;-81
2023/07/28 05:31:53;;;;;;;0.05;0.05;;;;;;;24.85;100.00;100521.94;10488284;28;20082;-81
2023/07/28 05:37:05;;;;;;;0.70;0.65;;;;;;;25.50;100.00;100525.44;10493005;28;20052;-82
2023/07/28 05:42:08;;;;;;;0.40;0.40;;;;;;;25.20;100.00;100527.56;10495577;28;20054;-82
2023/07/28 05:47:09;;;;;;;0.45;0.22;;;;;;;24.84;100.00;100534.28;10514914;28;20086;-81
2023/07/28 05:52:11;;;;;;;0.77;0.52;;;;;;;25.22;100.00;100541.53;10498873;28;20135;-82
2023/07/28 05:57:13;;;;;;;0.47;0.40;;;;;;;25.54;100.00;100547.28;10514886;28;20093;-81
2023/07/28 06:02:14;;;;;;;2.22;0.90;;;;;;;25.22;100.00;100552.06;10530987;28;20043;-81
2023/07/28 06:07:27;;;;;;;1.30;1.20;;;;;;;25.16;100.00;100554.97;10512289;28;20052;-81
2023/07/28 06:12:29;;;;;;;0.88;0.45;;;;;;;24.78;100.00;100568.75;10494150;28;20047;-81
2023/07/28 06:17:31;;;;;;;0.82;0.30;;;;;;;24.79;100.00;100557.31;10513642;28;20414;-81
2023/07/28 06:22:33;;;;;;;0.50;0.50;;;;;;;24.97;100.00;100574.16;10508019;28;20391;-81
2023/07/28 06:27:35;;;;;;;3.05;0.90;;;;;;;24.95;100.00;100570.72;10512760;28;20399;-81
2023/07/28 06:32:37;;;;;;;0.50;0.47;;;;;;;24.46;100.00;100572.59;10514465;28;20398;-81
2023/07/28 06:37:38;;;;;;;0.98;0.85;;;;;;;24.66;100.00;100580.63;10492431;28;20130;-82
2023/07/28 06:42:41;;;;;;;4.15;1.75;;;;;;;24.98;100.00;100578.50;10493378;28;20040;-81
2023/07/28 06:47:43;;;;;;;1.50;0.63;;;;;;;24.70;100.00;100586.63;10495633;28;20534;-81
2023/07/28 06:52:46;;;;;;;0.57;0.32;;;;;;;24.65;100.00;100599.94;10512911;28;20318;-81
2023/07/28 06:57:49;;;;;;;0.82;0.52;;;;;;;24.99;100.00;100598.66;10512323;28;20083;-82
2023/07/28 07:02:51;;;;;;;1.00;0.90;;;;;;;25.05;100.00;100600.19;10494891;28;20044;-81
2023/07/28 07:07:54;;;;;;;2.95;0.50;;;;;;;25.38;100.00;100617.38;10509386;28;20521;-82
2023/07/28 07:12:56;;;;;;;2.22;1.13;;;;;;;25.52;100.00;100625.59;10505471;28;20396;-81
2023/07/28 07:17:58;;;;;;;2.28;0.20;;;;;;;25.32;100.00;100629.88;10503318;28;20143;-82
2023/07/28 07:22:59;;;;;;;1.98;0.80;;;;;;;25.58;100.00;100630.63;10520647;28;20051;-81
2023/07/28 07:28:03;;;;;;;0.22;0.22;;;;;;;25.46;100.00;100645.19;10503225;28;20123;-82
2023/07/28 07:33:05;;;;;;;1.65;0.77;;;;;;;25.53;100.00;100643.16;10519727;28;20445;-82
2023/07/28 07:38:08;;;;;;;2.08;0.60;;;;;;;25.47;100.00;100646.03;10502205;28;20056;-81
2023/07/28 07:43:10;;;;;;;1.27;0.85;;;;;;;25.74;100.00;100653.72;10494757;28;20634;-81
2023/07/28 07:48:12;;;;;;;0.90;0.47;;;;;;;25.43;100.00;100649.72;10519369;28;20051;-81
2023/07/28 07:53:14;;;;;;;0.52;0.52;;;;;;;25.69;100.00;100653.91;10499339;28;20052;-81
2023/07/28 07:58:16;;;;;;;1.80;1.13;;;;;;;25.21;100.00;100652.31;10508307;28;20059;-81
2023/07/28 08:03:17;;;;;;;1.13;0.93;;;;;;;25.79;100.00;100667.59;10505750;28;20040;-81
2023/07/28 08:08:19;;;;;;;0.88;0.75;;;;;;;25.55;100.00;100670.31;10489183;28;20126;-81
2023/07/28 08:13:21;;;;;;;0.70;0.55;;;;;;;25.86;100.00;100669.06;10502067;28;20048;-81
2023/07/28 08:18:23;;;;;;;1.17;0.50;;;;;;;25.71;100.00;100673.19;10501934;28;20575;-81
2023/07/28 08:23:25;;;;;;;2.97;1.25;;;;;;;26.01;100.00;100671.97;10503376;28;20043;-81
2023/07/28 08:28:26;;;;;;;0.63;0.52;;;;;;;26.44;100.00;100675.41;10499244;28;20040;-81
2023/07/28 08:33:28;;;;;;;0.98;0.45;;;;;;;26.53;100.00;100680.31;10517063;28;20540;-81
2023/07/28 08:38:29;;;;;;;1.60;0.73;;;;;;;26.10;100.00;100684.81;10535003;28;20046;-81
2023/07/28 08:43:31;;;;;;;1.15;0.95;;;;;;;26.49;100.00;100678.69;10516283;28;20060;-81
2023/07/28 08:48:33;;;;;;;3.67;0.63;;;;;;;25.96;100.00;100680.94;10516821;28;20040;-81
2023/07/28 08:53:35;;;;;;;1.10;0.50;;;;;;;26.39;100.00;100694.09;10514519;28;20040;-81
2023/07/28 08:58:37;;;;;;;1.02;0.65;;;;;;;26.21;100.00;100687.84;10505919;28;20037;-82
2023/07/28 09:03:41;;;;;;;3.67;0.73;;;;;;;26.47;100.00;100685.88;10512529;28;20054;-81
2023/07/28 09:08:43;;;;;;;0.25;0.25;;;;;;;26.46;100.00;100700.00;10505459;28;20119;-81
2023/07/28 09:13:44;;;;;;;1.70;0.85;;;;;;;26.99;100.00;100692.38;10515746;28;20490;-81
2023/07/28 09:18:47;;;;;;;1.35;0.77;;;;;;;26.85;100.00;100701.78;10514920;28;20036;-81
2023/07/28 09:23:48;;;;;;;0.77;0.52;;;;;;;26.31;100.00;100706.78;10533794;28;20039;-80
2023/07/28 09:28:50;;;;;;;1.33;0.82;;;;;;;26.59;100.00;100706.44;10533579;28;20364;-81
2023/07/28 09:33:52;;;;;;;0.80;0.25;;;;;;;26.98;100.00;100712.66;10515182;28;20052;-81
2023/07/28 09:38:54;;;;;;;4.80;1.17;;;;;;;26.66;100.00;100711.44;10514812;28;20075;-81
2023/07/28 09:43:57;;;;;;;0.47;0.32;;;;;;;26.98;100.00;100703.88;10510664;28;20044;-81
2023/07/28 09:49:03;;;;;;;2.08;1.20;;;;;;;26.94;100.00;100707.56;10513848;28;20175;-81
2023/07/28 09:54:11;;;;;;;0.75;0.70;;;;;;;27.24;100.00;100714.09;10521583;28;20054;-81
2023/07/28 09:59:17;;;;;;;0.95;0.88;;;;;;;27.26;100.00;100711.34;10497033;28;20437;-81
2023/07/28 10:04:20;;;;;;;0.43;0.30;;;;;;;27.89;100.00;100714.59;10494687;28;20048;-81
2023/07/28 10:09:27;;;;;;;0.43;0.40;;;;;;;27.46;100.00;100718.38;10491225;28;20446;-81
2023/07/28 10:14:31;;;;;;;1.08;0.98;;;;;;;29.00;100.00;100714.16;10513126;28;20055;-80
2023/07/28 10:19:34;;;;;;;0.80;0.65;;;;;;;29.01;100.00;100710.53;10495358;28;20047;-80
2023/07/28 10:24:52;;;;;;;3.55;1.13;;;;;;;29.37;100.00;100717.47;10526517;28;20094;-80
2023/07/28 10:29:59;;;;;;;1.23;0.82;;;;;;;29.29;100.00;100722.31;10507010;28;20507;-81
2023/07/28 10:35:05;;;;;;;10.85;1.05;;;;;;;28.58;100.00;100724.31;10508367;28;20075;-81
2023/07/28 10:40:27;;;;;;;1.38;0.75;;;;;;;29.24;100.00;100721.69;10502415;28;20546;-81
2023/07/28 10:45:31;;;;;;;1.15;0.73;;;;;;;30.03;100.00;100711.94;10505580;28;20475;-80
2023/07/28 10:50:34;;;;;;;4.65;1.23;;;;;;;30.69;100.00;100712.44;10506066;28;20051;-80
2023/07/28 10:55:36;;;;;;;0.50;0.38;;;;;;;30.34;100.00;100718.97;10502947;28;20040;-80
2023/07/28 11:00:37;;;;;;;0.70;0.70;;;;;;;29.33;100.00;100726.50;10505459;28;20122;-81
2023/07/28 11:05:39;;;;;;;1.23;0.65;;;;;;;29.06;100.00;100721.78;10506679;28;20040;-80
2023/07/28 11:10:41;;;;;;;0.77;0.60;;;;;;;29.51;100.00;100718.47;10489559;28;20478;-80
2023/07/28 11:15:44;;;;;;;0.52;0.47;;;;;;;30.24;100.00;100720.44;10486987;28;20048;-81
2023/07/28 11:20:45;;;;;;;0.75;0.70;;;;;;;29.21;100.00;100721.88;10517113;28;20561;-80
2023/07/28 11:25:47;;;;;;;0.90;0.65;;;;;;;30.53;100.00;100717.84;10505033;28;20063;-80
2023/07/28 11:30:49;;;;;;;0.30;0.20;;;;;;;30.33;100.00;100722.56;10505220;28;20460;-80
2023/07/28 11:35:51;;;;;;;2.22;0.90;;;;;;;29.55;100.00;100725.31;10493871;28;20040;-80
2023/07/28 11:40:53;;;;;;;1.35;0.68;;;;;;;28.35;100.00;100730.78;10500217;28;20116;-80
2023/07/28 11:45:55;;;;;;;0.85;0.65;;;;;;;30.09;100.00;100729.31;10491635;28;20053;-80
2023/07/28 11:50:56;;;;;;;1.73;0.90;;;;;;;28.97;100.00;100735.53;10507086;28;20060;-80
2023/07/28 11:55:58;;;;;;;2.10;0.45;;;;;;;28.99;100.00;100728.38;10497532;28;20043;-80
2023/07/28 12:01:07;;;;;;;1.48;0.70;;;;;;;29.98;100.00;100717.53;10502839;28;20086;-80
2023/07/28 12:06:09;;;;;;;0.70;0.38;;;;;;;29.17;100.00;100725.63;10525122;28;20047;-80
2023/07/28 12:11:16;;;;;;;0.63;0.55;;;;;;;29.30;100.00;100721.38;10511099;28;20489;-80
2023/07/28 12:16:44;;;;;;;0.60;0.35;;;;;;;30.52;100.00;100721.47;10528134;28;20040;-80
2023/07/28 12:21:48;;;;;;;1.65;0.88;;;;;;;30.74;100.00;100726.31;10514522;28;20028;-80
2023/07/28 12:26:50;;;;;;;1.92;0.90;;;;;;;29.57;100.00;100728.72;10525293;28;20064;-80
2023/07/28 12:31:54;;;;;;;0.82;0.55;;;;;;;30.62;100.00;100727.06;10510859;28;20048;-80
2023/07/28 12:37:03;;;;;;;0.95;0.43;;;;;;;31.64;100.00;100725.97;10508647;28;20055;-80
2023/07/28 12:42:09;;;;;;;1.75;0.70;;;;;;;30.88;100.00;100740.56;10492932;28;20051;-80
2023/07/28 12:47:14;;;;;;;0.40;0.40;;;;;;;30.76;100.00;100737.69;10516650;28;20090;-80
2023/07/28 12:52:16;;;;;;;0.38;0.38;;;;;;;31.71;100.00;100737.97;10502735;28;20051;-81
2023/07/28 12:57:20;;;;;;;0.90;0.52;;;;;;;30.43;100.00;100738.78;10499869;28;20036;-81
2023/07/28 13:02:22;;;;;;;1.45;0.80;;;;;;;30.71;100.00;100734.47;10512267;28;20071;-81
2023/07/28 13:07:24;;;;;;;1.65;1.00;;;;;;;31.21;100.00;100734.94;10501756;28;20466;-81
2023/07/28 13:12:28;;;;;;;1.85;0.85;;;;;;;30.09;100.00;100729.31;10517323;28;20043;-80
2023/07/28 13:17:33;;;;;;;1.63;0.75;;;;;;;30.74;100.00;100731.63;10506283;28;20051;-79
2023/07/28 13:22:35;;;;;;;1.20;0.43;;;;;;;29.83;100.00;100731.66;10507557;28;20048;-80
2023/07/28 13:27:37;;;;;;;0.32;0.32;;;;;;;29.15;100.00;100733.66;10515236;28;20499;-80
2023/07/28 13:32:38;;;;;;;0.77;0.52;;;;;;;30.58;100.00;100731.72;10486866;28;20059;-80
2023/07/28 13:37:40;;;;;;;0.80;0.55;;;;;;;30.60;100.00;100724.50;10532209;28;20090;-80
2023/07/28 13:42:41;;;;;;;0.40;0.38;;;;;;;31.06;100.00;100714.59;10512747;28;20040;-80
2023/07/28 13:47:43;;;;;;;0.45;0.35;;;;;;;31.64;100.00;100712.66;10502709;28;20398;-80
2023/07/28 13:52:45;;;;;;;0.28;0.28;;;;;;;31.53;100.00;100708.03;10519461;28;20388;-80
2023/07/28 13:57:51;;;;;;;3.78;1.42;;;;;;;31.83;100.00;100707.00;10490495;28;20044;-79
2023/07/28 14:02:54;;;;;;;0.52;0.30;;;;;;;30.65;100.00;100717.09;10518324;28;20056;-80
2023/07/28 14:07:56;;;;;;;6.68;1.00;;;;;;;31.84;100.00;100706.00;10525679;28;20040;-79
2023/07/28 14:12:58;;;;;;;2.60;0.70;;;;;;;31.63;100.00;100706.47;10517476;28;20511;-80
2023/07/28 14:18:00;;;;;;;1.02;0.30;;;;;;;31.25;100.00;100709.81;10495323;28;20508;-80
2023/07/28 14:23:20;;;;;;;0.30;0.30;;;;;;;31.30;100.00;100707.75;10512323;28;20040;-79
2023/07/28 14:28:23;;;;;;;0.52;0.30;;;;;;;31.75;100.00;100701.31;10504349;28;20410;-80
2023/07/28 14:33:24;;;;;;;0.60;0.30;;;;;;;31.98;100.00;100696.25;10528244;28;20552;-80
2023/07/28 14:38:26;;;;;;;0.17;0.17;;;;;;;31.90;100.00;100700.28;10512698;28;20039;-79
2023/07/28 14:43:28;;;;;;;0.30;0.20;;;;;;;31.71;100.00;100705.13;10510023;28;20433;-80
2023/07/28 14:48:29;;;;;;;0.50;0.50;;;;;;;31.99;100.00;100708.59;10514203;28;20058;-80
2023/07/28 14:53:32;;;;;;;0.30;0.30;;;;;;;31.70;100.00;100709.63;10502082;28;20039;-80
2023/07/28 14:58:34;;;;;;;0.00;0.00;;;;;;;31.57;100.00;100712.19;10495114;28;20054;-80
2023/07/28 15:03:36;;;;;;;0.20;0.20;;;;;;;31.00;100.00;100711.38;10493602;28;20059;-80
2023/07/28 15:08:38;;;;;;;0.77;0.30;;;;;;;31.80;100.00;100699.19;10511058;28;20122;-80
2023/07/28 15:13:39;;;;;;;2.67;0.55;;;;;;;31.26;100.00;100705.38;10488629;28;20044;-80
2023/07/28 15:18:41;;;;;;;0.08;0.08;;;;;;;31.25;100.00;100703.66;10483615;28;20044;-80
2023/07/28 15:23:53;;;;;;;1.23;0.40;;;;;;;31.53;100.00;100696.53;10513912;28;20483;-80
2023/07/28 15:28:57;;;;;;;;;;;;;;;31.33;100.00;100694.22;10506032;28;20071;-80
2023/07/28 15:33:59;;;;;;;0.47;0.30;;;;;;;31.28;100.00;100709.63;10506241;28;20193;-79
2023/07/28 15:39:00;;;;;;;0.73;0.47;;;;;;;30.97;100.00;100695.59;10513107;28;20479;-80
2023/07/28 15:44:02;;;;;;;3.88;0.95;;;;;;;31.09;100.00;100698.47;10514248;28;20483;-80
2023/07/28 15:49:04;;;;;;;0.20;0.20;;;;;;;30.45;100.00;100709.47;10520375;28;20125;-80
2023/07/28 15:54:05;;;;;;;0.70;0.55;;;;;;;30.61;100.00;100704.94;10521954;28;20036;-80
2023/07/28 15:59:07;;;;;;;0.40;0.35;;;;;;;31.26;100.00;100705.38;10518666;28;20044;-80
2023/07/28 16:04:09;;;;;;;0.35;0.20;;;;;;;30.41;100.00;100707.94;10520322;28;20040;-80
2023/07/28 16:09:11;;;;;;;0.22;0.20;;;;;;;30.84;100.00;100715.97;10515793;28;20047;-80
2023/07/28 16:14:17;;;;;;;0.70;0.35;;;;;;;30.92;100.00;100711.00;10519500;28;20063;-79
2023/07/28 16:19:19;;;;;;;0.30;0.13;;;;;;;30.52;100.00;100705.50;10520242;28;20061;-79
2023/07/28 16:24:20;;;;;;;0.73;0.40;;;;;;;30.39;100.00;100711.56;10519729;28;20031;-80
2023/07/28 16:29:22;;;;;;;0.77;0.57;;;;;;;30.10;100.00;100697.34;10502884;28;20068;-80
2023/07/28 16:34:24;;;;;;;1.25;1.02;;;;;;;30.36;100.00;100694.94;10503254;28;20040;-80
2023/07/28 16:39:25;;;;;;;0.52;0.45;;;;;;;30.72;100.00;100692.81;10519539;28;20044;-80
2023/07/28 16:44:27;;;;;;;0.28;0.28;;;;;;;29.71;100.00;100694.28;10498128;28;20042;-79
2023/07/28 16:49:29;;;;;;;0.70;0.63;;;;;;;29.42;100.00;100691.50;10516647;28;20044;-79
2023/07/28 16:54:30;;;;;;;1.08;0.80;;;;;;;28.91;100.00;100693.44;10514276;28;20723;-79
2023/07/28 16:59:32;;;;;;;0.52;0.50;;;;;;;29.39;100.00;100693.47;10534945;28;20048;-79
2023/07/28 17:04:33;;;;;;;0.75;0.57;;;;;;;30.22;100.00;100693.97;10501181;28;20044;-79
2023/07/28 17:09:35;;;;;;;0.65;0.50;;;;;;;29.82;100.00;100700.78;10512880;28;20058;-79
2023/07/28 17:14:37;;;;;;;0.65;0.45;;;;;;;29.58;100.00;100701.25;10498813;28;20047;-79
2023/07/28 17:19:39;;;;;;;0.75;0.50;;;;;;;29.38;100.00;100708.53;10534164;28;20065;-79
2023/07/28 17:24:40;;;;;;;1.00;0.52;;;;;;;29.53;100.00;100708.59;10517379;28;20036;-79
2023/07/28 17:29:42;;;;;;;0.60;0.40;;;;;;;30.13;100.00;100698.97;10500720;28;20044;-79
2023/07/28 17:34:44;;;;;;;0.30;0.10;;;;;;;30.45;100.00;100709.47;10515488;28;20056;-79
2023/07/28 17:39:46;;;;;;;0.57;0.45;;;;;;;31.07;100.00;100711.00;10514867;28;20410;-79
2023/07/28 17:44:51;;;;;;;0.50;0.50;;;;;;;31.11;100.00;100702.75;10508252;28;20043;-80
2023/07/28 17:49:52;;;;;;;0.43;0.38;;;;;;;30.15;100.00;100707.72;10528680;28;20519;-79
2023/07/28 17:54:54;;;;;;;0.40;0.32;;;;;;;30.26;100.00;100710.59;10512507;28;20048;-80
2023/07/28 17:59:56;;;;;;;1.63;0.95;;;;;;;29.39;100.00;100704.94;10514061;28;20127;-80
2023/07/28 18:04:58;;;;;;;0.17;0.10;;;;;;;28.67;100.00;100720.31;10530042;28;20498;-79
2023/07/28 18:10:00;;;;;;;0.95;0.22;;;;;;;28.36;100.00;100723.72;10508012;28;20463;-79
2023/07/28 18:15:03;;;;;;;0.28;0.10;;;;;;;28.36;100.00;100719.25;10504063;28;20055;-80
2023/07/28 18:20:06;;;;;;;0.32;0.22;;;;;;;28.56;100.00;100720.03;10511789;28;20519;-79
2023/07/28 18:25:07;;;;;;;1.05;0.70;;;;;;;28.71;100.00;100713.91;10513866;28;20047;-79
2023/07/28 18:30:10;;;;;;;0.10;0.10;;;;;;;28.66;100.00;100723.88;10521855;28;20047;-80
2023/07/28 18:35:11;;;;;;;0.10;0.10;;;;;;;28.64;100.00;100718.69;10528647;28;20044;-79
2023/07/28 18:40:13;;;;;;;0.38;0.25;;;;;;;28.58;100.00;100718.13;10527346;28;20040;-79
2023/07/28 18:45:15;;;;;;;0.10;0.08;;;;;;;28.86;100.00;100727.28;10506326;28;20048;-80
2023/07/28 18:50:17;;;;;;;0.70;0.70;;;;;;;28.50;100.00;100737.09;10499017;28;20052;-79
2023/07/28 18:55:19;;;;;;;0.43;0.30;;;;;;;29.10;100.00;100749.00;10496535;28;20052;-79
2023/07/28 19:00:20;;;;;;;3.38;0.75;;;;;;;28.38;100.00;100743.88;10509968;28;20051;-79
2023/07/28 19:05:23;;;;;;;1.52;0.30;;;;;;;27.70;100.00;100760.47;10496225;28;20036;-79
2023/07/28 19:10:24;;;;;;;0.60;0.40;;;;;;;27.32;100.00;100753.41;10488256;28;20055;-79
2023/07/28 19:15:26;;;;;;;1.65;0.50;;;;;;;27.63;100.00;100745.81;10497616;28;20048;-79
2023/07/28 19:20:46;;;;;;;0.30;0.30;;;;;;;27.32;100.00;100763.13;10511188;28;20050;-79
2023/07/28 19:25:48;;;;;;;0.10;0.05;;;;;;;27.34;100.00;100762.09;10512165;28;20040;-79
2023/07/28 19:30:50;;;;;;;0.63;0.55;;;;;;;26.92;100.00;100766.66;10511292;28;20491;-79
2023/07/28 19:35:52;;;;;;;0.95;0.45;;;;;;;26.60;100.00;100771.56;10530700;28;20558;-80
2023/07/28 19:40:54;;;;;;;0.43;0.30;;;;;;;26.16;100.00;100787.53;10529512;28;20040;-79
2023/07/28 19:45:56;;;;;;;0.52;0.35;;;;;;;26.24;100.00;100785.44;10495230;28;20040;-79
2023/07/28 19:50:59;;;;;;;0.35;0.28;;;;;;;26.32;100.00;100794.81;10511671;28;20055;-79
2023/07/28 19:56:00;;;;;;;0.30;0.30;;;;;;;26.00;100.00;100791.66;10512148;28;20040;-80
2023/07/28 20:01:02;;;;;;;1.75;0.65;;;;;;;26.35;100.00;100794.66;10511603;28;20040;-79
2023/07/28 20:06:04;;;;;;;0.68;0.30;;;;;;;25.80;100.00;100788.06;10496950;28;20167;-79
2023/07/28 20:11:06;;;;;;;0.88;0.52;;;;;;;25.38;100.00;100796.66;10505882;28;20070;-79
2023/07/28 20:16:09;;;;;;;0.57;0.52;;;;;;;24.97;100.00;100802.56;10529421;28;20040;-79
2023/07/28 20:21:11;;;;;;;0.10;0.10;;;;;;;26.51;100.00;100792.25;10496951;28;20510;-79
2023/07/28 20:26:12;;;;;;;0.85;0.22;;;;;;;26.67;100.00;100792.44;10510911;28;20047;-79
2023/07/28 20:31:14;;;;;;;2.80;0.57;;;;;;;26.02;100.00;100795.97;10512619;28;20655;-79
2023/07/28 20:36:16;;;;;;;0.10;0.10;;;;;;;26.10;100.00;100793.91;10501514;28;20055;-79
2023/07/28 20:41:19;;;;;;;0.20;0.13;;;;;;;26.34;100.00;100782.38;10533536;28;20047;-79
2023/07/28 20:46:20;;;;;;;0.43;0.28;;;;;;;26.67;100.00;100782.72;10502608;28;20041;-79
2023/07/28 20:51:22;;;;;;;0.00;0.00;;;;;;;25.95;100.00;100783.94;10508416;28;20075;-79
2023/07/28 20:56:24;;;;;;;0.10;0.10;;;;;;;26.02;100.00;100790.69;10513960;28;20399;-79
2023/07/28 21:01:25;;;;;;;0.10;0.10;;;;;;;25.41;100.00;100784.25;10513084;28;20410;-79
2023/07/28 21:06:27;;;;;;;0.35;0.35;;;;;;;26.06;100.00;100783.50;10513931;28;20051;-79
2023/07/28 21:11:29;;;;;;;0.28;0.17;;;;;;;25.89;100.00;100777.13;10510543;28;20050;-79
2023/07/28 21:16:31;;;;;;;0.38;0.10;;;;;;;25.64;100.00;100774.59;10535043;28;20043;-79
2023/07/28 21:21:33;;;;;;;0.05;0.05;;;;;;;25.74;100.00;100764.53;10499319;28;20123;-79
2023/07/28 21:26:35;;;;;;;0.38;0.20;;;;;;;25.73;100.00;100753.13;10499736;28;20044;-79
2023/07/28 21:31:37;;;;;;;0.22;0.10;;;;;;;25.83;100.00;100758.91;10515036;28;20449;-79
2023/07/28 21:36:40;;;;;;;0.43;0.22;;;;;;;25.28;100.00;100757.47;10514431;28;20040;-79
2023/07/28 21:41:41;;;;;;;0.40;0.17;;;;;;;25.96;100.00;100746.06;10512401;28;20514;-79
2023/07/28 21:46:43;;;;;;;0.95;0.47;;;;;;;25.12;100.00;100753.72;10512319;28;20076;-79
2023/07/28 21:51:45;;;;;;;0.47;0.30;;;;;;;25.01;100.00;100757.59;10514253;28;20623;-79
2023/07/28 21:56:47;;;;;;;0.93;0.17;;;;;;;25.96;100.00;100752.19;10511951;28;20036;-79
2023/07/28 22:01:48;;;;;;;0.10;0.10;;;;;;;26.95;100.00;100754.22;10513607;28;20054;-79
2023/07/28 22:06:50;;;;;;;0.20;0.20;;;;;;;26.28;100.00;100763.22;10497779;28;20043;-79
2023/07/28 22:11:52;;;;;;;0.20;0.20;;;;;;;25.78;100.00;100760.88;10531763;28;20406;-79
2023/07/28 22:16:54;;;;;;;0.20;0.10;;;;;;;26.43;100.00;100758.22;10513974;28;20332;-79
2023/07/28 22:21:56;;;;;;;0.40;0.30;;;;;;;25.82;100.00;100749.25;10513627;28;20044;-79
2023/07/28 22:26:58;;;;;;;0.00;0.00;;;;;;;25.94;100.00;100740.84;10528592;28;20039;-79
2023/07/28 22:32:00;;;;;;;0.40;0.40;;;;;;;25.53;100.00;100753.91;10530606;28;20055;-79
2023/07/28 22:37:01;;;;;;;0.20;0.20;;;;;;;25.79;100.00;100741.47;10513264;28;20509;-80
2023/07/28 22:42:03;;;;;;;0.25;0.17;;;;;;;25.16;100.00;100744.75;10492041;28;20048;-79
2023/07/28 22:47:05;;;;;;;0.50;0.32;;;;;;;24.59;100.00;100737.13;10511393;28;20048;-80
2023/07/28 22:52:06;;;;;;;0.20;0.17;;;;;;;25.58;100.00;100733.47;10512118;28;20051;-80
2023/07/28 22:57:08;;;;;;;0.10;0.10;;;;;;;26.17;100.00;100731.16;10511434;28;20483;-80